Time;durP1;ratioP1;P1;durP2;ratioP2;P2;SDS_P1;SDS_P2;PMS_P1;PMS_P2;Temp;Humidity;BMP_temperature;BMP_pressure;BME280_temperature;BME280_humidity;BME280_pressure;Samples;Min_cycle;Max_cycle;Signal;HPM_P1;HPM_P2
2022/04/08 00:00:57;;;;;;;1.30;0.60;;;17.90;41.10;;;;;;5065187;28;20425;-58
2022/04/08 00:03:24;;;;;;;1.03;0.70;;;17.90;41.10;;;;;;5066408;28;20869;-58
2022/04/08 00:05:50;;;;;;;0.90;0.63;;;17.90;41.10;;;;;;5064418;28;20466;-59
2022/04/08 00:08:16;;;;;;;0.70;0.60;;;17.90;41.10;;;;;;5064487;28;20970;-57
2022/04/08 00:10:42;;;;;;;0.97;0.90;;;17.90;41.10;;;;;;5061164;28;20498;-58
2022/04/08 00:13:07;;;;;;;0.70;0.60;;;17.90;41.20;;;;;;5059266;28;20563;-58
2022/04/08 00:15:36;;;;;;;0.90;0.70;;;17.90;41.20;;;;;;5063397;28;20237;-58
2022/04/08 00:18:01;;;;;;;1.30;0.90;;;17.90;41.10;;;;;;5061107;28;20290;-58
2022/04/08 00:20:27;;;;;;;1.00;0.63;;;17.90;41.10;;;;;;5062904;28;20538;-57
2022/04/08 00:22:53;;;;;;;1.90;0.83;;;17.90;41.10;;;;;;5064499;28;20564;-58
2022/04/08 00:25:19;;;;;;;0.90;0.80;;;17.90;41.10;;;;;;5065071;28;20225;-59
2022/04/08 00:27:44;;;;;;;1.47;0.90;;;17.90;41.10;;;;;;5059086;28;20438;-58
2022/04/08 00:30:10;;;;;;;0.83;0.70;;;17.90;41.20;;;;;;5060765;28;20232;-58
2022/04/08 00:32:36;;;;;;;1.60;0.70;;;17.90;41.10;;;;;;5063259;28;20218;-59
2022/04/08 00:35:01;;;;;;;2.07;0.80;;;17.90;41.10;;;;;;5064206;28;20225;-59
2022/04/08 00:37:27;;;;;;;0.80;0.70;;;17.90;41.10;;;;;;5064452;28;20584;-58
2022/04/08 00:39:52;;;;;;;1.23;0.60;;;17.90;41.10;;;;;;5062986;28;20250;-58
2022/04/08 00:42:18;;;;;;;0.80;0.70;;;17.90;41.10;;;;;;5061945;28;20226;-59
2022/04/08 00:44:43;;;;;;;1.57;0.60;;;17.90;41.10;;;;;;5057905;28;20229;-58
2022/04/08 00:47:09;;;;;;;1.20;0.90;;;17.90;41.10;;;;;;5060367;28;20232;-59
2022/04/08 00:49:37;;;;;;;1.77;0.70;;;17.90;41.10;;;;;;5059506;28;20225;-58
2022/04/08 00:52:03;;;;;;;1.10;0.70;;;17.90;41.10;;;;;;5059666;28;20221;-58
2022/04/08 00:54:30;;;;;;;0.90;0.70;;;17.90;41.10;;;;;;5061460;28;20455;-59
2022/04/08 00:56:57;;;;;;;0.70;0.60;;;17.90;41.10;;;;;;5056711;28;20448;-58
2022/04/08 00:59:25;;;;;;;0.70;0.70;;;17.90;41.00;;;;;;5060874;28;21154;-59
2022/04/08 01:01:51;;;;;;;1.20;0.70;;;17.90;41.00;;;;;;5062918;28;20783;-58
2022/04/08 01:04:17;;;;;;;1.00;0.70;;;17.90;41.10;;;;;;5061060;28;20422;-58
2022/04/08 01:06:44;;;;;;;0.80;0.70;;;17.90;41.10;;;;;;5058879;28;20230;-59
2022/04/08 01:09:10;;;;;;;1.23;0.70;;;17.90;41.10;;;;;;5064186;28;20230;-58
2022/04/08 01:11:37;;;;;;;0.90;0.90;;;17.90;41.10;;;;;;5060217;28;20581;-58
2022/04/08 01:14:10;;;;;;;0.80;0.60;;;17.90;41.10;;;;;;5059756;28;20588;-58
2022/04/08 01:16:36;;;;;;;0.70;0.50;;;17.90;41.00;;;;;;5065231;28;20413;-58
2022/04/08 01:19:01;;;;;;;0.93;0.80;;;17.90;41.10;;;;;;5064851;28;20783;-58
2022/04/08 01:21:27;;;;;;;1.17;0.60;;;17.90;41.10;;;;;;5065480;28;20249;-58
2022/04/08 01:23:55;;;;;;;0.70;0.60;;;17.90;41.10;;;;;;5057696;28;20226;-58
2022/04/08 01:26:21;;;;;;;1.10;0.70;;;17.90;41.10;;;;;;5061193;28;20225;-59
2022/04/08 01:28:46;;;;;;;3.30;1.00;;;17.90;41.10;;;;;;5061807;28;20453;-58
2022/04/08 01:31:12;;;;;;;0.90;0.80;;;17.90;41.10;;;;;;5062635;28;20640;-59
2022/04/08 01:33:37;;;;;;;0.90;0.63;;;17.90;41.10;;;;;;5058605;28;20217;-58
2022/04/08 01:36:03;;;;;;;1.53;0.70;;;17.90;41.10;;;;;;5054767;28;20345;-58
2022/04/08 01:38:29;;;;;;;0.90;0.70;;;17.90;41.00;;;;;;5065655;28;22941;-58
2022/04/08 01:40:54;;;;;;;0.70;0.60;;;17.90;41.10;;;;;;5060850;28;20233;-58
2022/04/08 01:43:20;;;;;;;0.80;0.80;;;17.90;41.10;;;;;;5058962;28;20221;-58
2022/04/08 01:45:46;;;;;;;0.70;0.60;;;17.90;41.10;;;;;;5061105;28;20218;-58
2022/04/08 01:48:11;;;;;;;0.97;0.70;;;17.90;41.10;;;;;;5061099;28;20224;-58
2022/04/08 01:50:37;;;;;;;1.73;0.67;;;17.90;41.10;;;;;;5058549;28;20283;-58
2022/04/08 01:53:02;;;;;;;1.33;0.70;;;17.90;41.10;;;;;;5064304;28;20214;-59
2022/04/08 01:55:28;;;;;;;0.80;0.60;;;17.90;41.00;;;;;;5062751;28;20309;-58
2022/04/08 01:57:54;;;;;;;0.70;0.70;;;17.90;41.10;;;;;;5061908;28;20226;-58
2022/04/08 02:00:19;;;;;;;0.80;0.80;;;17.90;41.00;;;;;;5060397;28;20279;-57
2022/04/08 02:02:45;;;;;;;0.80;0.70;;;17.90;41.00;;;;;;5059777;28;20726;-59
2022/04/08 02:05:11;;;;;;;0.70;0.60;;;17.90;41.00;;;;;;5056359;28;20254;-58
2022/04/08 02:07:37;;;;;;;0.80;0.73;;;17.90;41.00;;;;;;5064494;28;20425;-58
2022/04/08 02:10:06;;;;;;;0.90;0.63;;;17.80;40.90;;;;;;5061949;28;20230;-59
2022/04/08 02:12:32;;;;;;;1.57;0.90;;;17.80;40.90;;;;;;5058276;28;20210;-59
2022/04/08 02:14:58;;;;;;;0.70;0.60;;;17.90;41.00;;;;;;5065799;28;20441;-59
2022/04/08 02:17:25;;;;;;;1.07;0.90;;;17.90;41.00;;;;;;5063789;28;20557;-58
2022/04/08 02:19:52;;;;;;;0.90;0.73;;;17.90;41.00;;;;;;5056982;28;20261;-58
2022/04/08 02:22:19;;;;;;;1.27;0.80;;;17.90;41.00;;;;;;5063955;28;20571;-58
2022/04/08 02:24:46;;;;;;;0.90;0.70;;;17.90;41.00;;;;;;5064855;28;20429;-59
2022/04/08 02:27:12;;;;;;;0.80;0.60;;;17.90;41.00;;;;;;5061603;28;20436;-59
2022/04/08 02:29:37;;;;;;;1.13;0.63;;;17.90;41.00;;;;;;5065012;28;20494;-58
2022/04/08 02:32:04;;;;;;;0.70;0.63;;;17.90;40.90;;;;;;5060171;28;20225;-57
2022/04/08 02:34:30;;;;;;;0.70;0.60;;;17.90;41.00;;;;;;5069789;28;20581;-58
2022/04/08 02:36:55;;;;;;;1.47;0.77;;;17.90;40.90;;;;;;5069105;28;20429;-59
2022/04/08 02:39:21;;;;;;;0.83;0.70;;;17.90;40.90;;;;;;5064284;28;20642;-59
2022/04/08 02:41:47;;;;;;;1.13;0.70;;;17.90;40.90;;;;;;5079793;28;20671;-59
2022/04/08 02:44:12;;;;;;;0.80;0.60;;;17.90;41.60;;;;;;5066979;28;20233;-59
2022/04/08 02:46:38;;;;;;;0.90;0.70;;;17.90;40.90;;;;;;5066163;28;20238;-58
2022/04/08 02:49:03;;;;;;;0.80;0.63;;;17.90;40.90;;;;;;5060725;28;20226;-59
2022/04/08 02:51:29;;;;;;;0.90;0.70;;;17.90;40.80;;;;;;5066499;28;20238;-59
2022/04/08 02:53:55;;;;;;;1.13;0.70;;;17.90;40.90;;;;;;5066056;28;20219;-58
2022/04/08 02:56:21;;;;;;;1.00;0.60;;;17.90;40.90;;;;;;5064716;28;20229;-58
2022/04/08 02:58:49;;;;;;;0.80;0.70;;;17.90;40.80;;;;;;5063101;28;21131;-58
2022/04/08 03:01:17;;;;;;;0.70;0.60;;;17.90;40.90;;;;;;5069249;28;20586;-58
2022/04/08 03:03:43;;;;;;;1.03;0.60;;;17.90;40.90;;;;;;5058651;28;20493;-58
2022/04/08 03:06:09;;;;;;;0.80;0.73;;;17.90;40.80;;;;;;5064989;28;20466;-58
2022/04/08 03:08:34;;;;;;;0.80;0.70;;;17.90;40.80;;;;;;5063151;28;20604;-58
2022/04/08 03:11:00;;;;;;;0.70;0.63;;;17.90;40.80;;;;;;5062206;28;20887;-58
2022/04/08 03:13:26;;;;;;;0.80;0.80;;;17.90;41.60;;;;;;5064829;28;20222;-58
2022/04/08 03:15:52;;;;;;;0.80;0.70;;;17.90;40.80;;;;;;5064852;28;20747;-58
2022/04/08 03:18:18;;;;;;;0.93;0.83;;;17.90;40.80;;;;;;5067432;28;20218;-58
2022/04/08 03:20:44;;;;;;;1.10;0.60;;;17.90;40.80;;;;;;5063158;28;20452;-58
2022/04/08 03:23:09;;;;;;;0.97;0.90;;;17.90;40.90;;;;;;5066417;28;20227;-59
2022/04/08 03:25:35;;;;;;;0.70;0.70;;;17.90;40.80;;;;;;5063343;28;20581;-59
2022/04/08 03:28:01;;;;;;;0.70;0.70;;;17.90;40.80;;;;;;5061419;28;20227;-58
2022/04/08 03:30:27;;;;;;;1.13;0.60;;;17.90;40.80;;;;;;5067868;28;20234;-58
2022/04/08 03:32:54;;;;;;;0.70;0.67;;;17.90;40.80;;;;;;5064189;28;20364;-58
2022/04/08 03:35:20;;;;;;;0.80;0.70;;;17.90;40.80;;;;;;5062310;28;20440;-58
2022/04/08 03:37:46;;;;;;;0.70;0.70;;;17.90;40.80;;;;;;5064776;28;20422;-59
2022/04/08 03:40:12;;;;;;;0.70;0.70;;;17.90;40.80;;;;;;5065536;28;20421;-59
2022/04/08 03:42:38;;;;;;;0.80;0.70;;;17.90;40.80;;;;;;5057498;28;20293;-58
2022/04/08 03:45:05;;;;;;;0.90;0.80;;;17.90;40.80;;;;;;5065193;28;20508;-58
2022/04/08 03:47:30;;;;;;;0.80;0.60;;;17.90;40.70;;;;;;5060729;28;20250;-61
2022/04/08 03:49:57;;;;;;;0.80;0.70;;;17.90;40.80;;;;;;5066451;28;20920;-59
2022/04/08 03:52:23;;;;;;;1.10;0.73;;;17.90;40.80;;;;;;5063148;28;20252;-58
2022/04/08 03:54:48;;;;;;;1.00;0.90;;;17.90;40.80;;;;;;5066931;28;20795;-59
2022/04/08 03:57:14;;;;;;;0.80;0.70;;;17.90;40.70;;;;;;5062515;28;20451;-58
2022/04/08 03:59:41;;;;;;;0.80;0.70;;;17.90;41.50;;;;;;5059516;28;20758;-59
2022/04/08 04:02:07;;;;;;;0.70;0.70;;;17.90;40.80;;;;;;5063961;28;20221;-59
2022/04/08 04:04:33;;;;;;;1.10;0.73;;;17.90;40.80;;;;;;5062502;28;20822;-58
2022/04/08 04:06:59;;;;;;;1.00;0.90;;;17.90;40.80;;;;;;5062788;28;20317;-58
2022/04/08 04:09:24;;;;;;;0.70;0.70;;;17.90;40.80;;;;;;5065776;28;20903;-58
2022/04/08 04:11:50;;;;;;;1.00;0.77;;;17.90;40.80;;;;;;5060646;28;20219;-58
2022/04/08 04:14:16;;;;;;;1.10;0.70;;;17.90;40.80;;;;;;5062042;28;20218;-58
2022/04/08 04:16:42;;;;;;;0.80;0.80;;;17.90;40.70;;;;;;5061208;28;20825;-59
2022/04/08 04:19:07;;;;;;;0.80;0.70;;;17.90;40.70;;;;;;5062896;28;20245;-58
2022/04/08 04:21:33;;;;;;;2.50;0.77;;;17.90;40.80;;;;;;5064177;28;20317;-59
2022/04/08 04:23:59;;;;;;;0.77;0.73;;;17.90;40.70;;;;;;5064525;28;20217;-59
2022/04/08 04:26:24;;;;;;;0.97;0.80;;;17.90;40.70;;;;;;5059303;28;20221;-58
2022/04/08 04:28:50;;;;;;;0.90;0.80;;;17.90;40.70;;;;;;5066464;28;20267;-59
2022/04/08 04:31:15;;;;;;;1.00;0.90;;;17.90;40.70;;;;;;5061808;28;20261;-58
2022/04/08 04:33:41;;;;;;;1.00;0.90;;;17.80;40.60;;;;;;5059100;28;20283;-59
2022/04/08 04:36:06;;;;;;;1.00;0.80;;;17.90;40.70;;;;;;5062598;28;20230;-59
2022/04/08 04:38:32;;;;;;;0.80;0.70;;;17.90;40.70;;;;;;5064835;28;20229;-59
2022/04/08 04:40:57;;;;;;;0.77;0.70;;;17.90;40.70;;;;;;5059396;28;20893;-60
2022/04/08 04:43:23;;;;;;;0.90;0.70;;;17.90;40.60;;;;;;5059523;28;20721;-58
2022/04/08 04:45:49;;;;;;;0.90;0.87;;;17.90;40.60;;;;;;5062788;28;20268;-58
2022/04/08 04:48:14;;;;;;;0.80;0.80;;;18.00;40.60;;;;;;5047269;28;20214;-62
2022/04/08 04:50:40;;;;;;;2.80;0.80;;;18.00;40.50;;;;;;5062354;28;20308;-58
2022/04/08 04:53:07;;;;;;;1.90;0.90;;;18.00;40.50;;;;;;5062713;28;20231;-58
2022/04/08 04:55:32;;;;;;;0.93;0.73;;;18.00;40.30;;;;;;5061356;28;20898;-60
2022/04/08 04:57:58;;;;;;;0.83;0.70;;;18.10;40.30;;;;;;5061428;28;20437;-59
2022/04/08 05:00:24;;;;;;;1.57;1.00;;;18.10;40.40;;;;;;5062145;28;20214;-58
2022/04/08 05:02:50;;;;;;;1.00;0.70;;;18.10;40.30;;;;;;5062259;28;20233;-58
2022/04/08 05:05:15;;;;;;;2.20;0.80;;;18.10;40.30;;;;;;5066091;28;20218;-58
2022/04/08 05:07:41;;;;;;;1.00;0.90;;;18.10;40.30;;;;;;5063119;28;20214;-58
2022/04/08 05:10:08;;;;;;;0.93;0.90;;;18.00;40.20;;;;;;5064350;28;20260;-59
2022/04/08 05:12:37;;;;;;;0.80;0.77;;;18.10;40.40;;;;;;5060179;28;20218;-57
2022/04/08 05:15:09;;;;;;;1.47;0.97;;;18.10;40.30;;;;;;5058805;28;20417;-58
2022/04/08 05:17:35;;;;;;;1.27;0.90;;;18.10;40.30;;;;;;5058441;28;20455;-59
2022/04/08 05:20:08;;;;;;;0.97;0.90;;;18.10;40.30;;;;;;5061562;28;20444;-57
2022/04/08 05:22:34;;;;;;;1.20;1.00;;;18.10;40.30;;;;;;5059565;28;20413;-58
2022/04/08 05:25:00;;;;;;;2.63;0.97;;;18.10;40.30;;;;;;5058894;28;20412;-59
2022/04/08 05:27:26;;;;;;;0.90;0.80;;;18.10;40.30;;;;;;5064153;28;20425;-58
2022/04/08 05:29:52;;;;;;;0.90;0.80;;;18.10;40.40;;;;;;5063824;28;20444;-59
2022/04/08 05:32:18;;;;;;;0.83;0.83;;;18.10;40.30;;;;;;5060039;28;20480;-59
2022/04/08 05:34:43;;;;;;;2.30;1.00;;;18.10;40.30;;;;;;5060388;28;20445;-60
2022/04/08 05:37:09;;;;;;;2.57;0.80;;;18.10;40.30;;;;;;5065482;28;20213;-59
2022/04/08 05:39:35;;;;;;;2.60;1.60;;;18.10;40.30;;;;;;5058314;28;20656;-59
2022/04/08 05:42:00;;;;;;;1.10;0.90;;;18.10;40.10;;;;;;5057990;28;20686;-58
2022/04/08 05:44:26;;;;;;;1.10;1.00;;;18.10;40.00;;;;;;5064757;28;20666;-59
2022/04/08 05:46:51;;;;;;;1.03;0.93;;;18.10;39.90;;;;;;5061214;28;20232;-60
2022/04/08 05:49:17;;;;;;;3.93;1.03;;;18.10;39.90;;;;;;5060518;28;20230;-60
2022/04/08 05:51:45;;;;;;;1.33;1.23;;;18.10;39.90;;;;;;5062945;28;20320;-58
2022/04/08 05:54:11;;;;;;;1.20;1.10;;;18.10;40.00;;;;;;5060825;28;20234;-58
2022/04/08 05:56:36;;;;;;;1.63;1.00;;;18.10;40.00;;;;;;5061514;28;20553;-59
2022/04/08 05:59:02;;;;;;;1.40;0.90;;;18.10;40.10;;;;;;5064291;28;20309;-58
2022/04/08 06:01:28;;;;;;;1.20;1.10;;;18.10;40.10;;;;;;5073532;28;20323;-58
2022/04/08 06:03:54;;;;;;;0.90;0.80;;;18.10;40.10;;;;;;5066502;28;20225;-58
2022/04/08 06:06:20;;;;;;;1.00;0.90;;;18.10;40.10;;;;;;5064016;28;20229;-58
2022/04/08 06:08:46;;;;;;;1.40;1.30;;;18.10;40.10;;;;;;5059133;28;20509;-58
2022/04/08 06:11:11;;;;;;;1.20;1.10;;;18.10;40.20;;;;;;5064096;28;20230;-58
2022/04/08 06:13:37;;;;;;;1.20;1.10;;;18.10;40.10;;;;;;5061221;28;20230;-58
2022/04/08 06:16:03;;;;;;;1.10;1.00;;;18.10;40.90;;;;;;5060179;28;20998;-59
2022/04/08 06:18:28;;;;;;;1.87;1.17;;;18.10;40.20;;;;;;5055632;28;20623;-59
2022/04/08 06:20:54;;;;;;;1.83;1.00;;;18.10;40.20;;;;;;5061491;28;20751;-60
2022/04/08 06:23:19;;;;;;;0.80;0.80;;;18.10;40.20;;;;;;5065078;28;20236;-58
2022/04/08 06:25:45;;;;;;;1.10;1.00;;;18.10;40.20;;;;;;5058631;28;20226;-59
2022/04/08 06:28:11;;;;;;;1.00;0.90;;;18.10;40.20;;;;;;5060478;28;20226;-59
2022/04/08 06:30:39;;;;;;;1.77;1.13;;;18.10;40.20;;;;;;5059423;28;20350;-58
2022/04/08 06:33:07;;;;;;;1.23;1.13;;;18.10;40.20;;;;;;5057506;28;20321;-58
2022/04/08 06:35:33;;;;;;;1.07;0.97;;;18.10;40.30;;;;;;5059303;28;20432;-59
2022/04/08 06:38:05;;;;;;;1.10;1.00;;;18.10;40.30;;;;;;5057926;28;20432;-60
2022/04/08 06:40:40;;;;;;;1.07;0.97;;;18.10;40.30;;;;;;5058558;28;20446;-58
2022/04/08 06:43:07;;;;;;;1.10;1.00;;;18.10;40.30;;;;;;5060287;28;20442;-58
2022/04/08 06:45:33;;;;;;;0.80;0.80;;;18.10;40.30;;;;;;5063806;28;20451;-58
2022/04/08 06:47:59;;;;;;;3.80;0.90;;;18.10;40.30;;;;;;5059955;28;20425;-57
2022/04/08 06:50:25;;;;;;;1.20;1.10;;;18.10;40.30;;;;;;5058662;28;20230;-59
2022/04/08 06:52:51;;;;;;;1.40;0.90;;;18.10;40.40;;;;;;5055888;28;20525;-58
2022/04/08 06:55:17;;;;;;;1.17;0.80;;;18.10;40.40;;;;;;5062529;28;20521;-57
2022/04/08 06:57:43;;;;;;;1.73;1.10;;;18.10;40.30;;;;;;5062474;28;20252;-57
2022/04/08 07:00:11;;;;;;;1.00;0.87;;;18.10;40.30;;;;;;5058870;28;20320;-56
2022/04/08 07:02:37;;;;;;;1.10;1.00;;;18.20;40.50;;;;;;5061352;28;20450;-57
2022/04/08 07:05:03;;;;;;;2.03;1.00;;;18.20;40.40;;;;;;5062275;28;20462;-58
2022/04/08 07:07:32;;;;;;;0.77;0.77;;;18.20;40.40;;;;;;5063071;28;20234;-59
2022/04/08 07:09:58;;;;;;;1.27;1.00;;;18.20;40.30;;;;;;5063084;28;20475;-59
2022/04/08 07:12:25;;;;;;;1.30;1.17;;;18.20;40.30;;;;;;5062458;28;20461;-58
2022/04/08 07:14:51;;;;;;;1.23;1.00;;;18.20;40.30;;;;;;5062231;28;20267;-59
2022/04/08 07:17:17;;;;;;;1.80;1.00;;;18.20;40.20;;;;;;5062966;28;20450;-59
2022/04/08 07:19:42;;;;;;;1.37;0.90;;;18.20;40.20;;;;;;5069253;28;20283;-59
2022/04/08 07:22:08;;;;;;;1.60;1.10;;;18.20;40.20;;;;;;5065993;28;20234;-58
2022/04/08 07:24:33;;;;;;;1.00;0.87;;;18.20;40.30;;;;;;5064956;28;20230;-59
2022/04/08 07:26:59;;;;;;;1.10;0.90;;;18.20;40.30;;;;;;5063052;28;20312;-60
2022/04/08 07:29:24;;;;;;;0.93;0.83;;;18.20;40.40;;;;;;5067830;28;20244;-58
2022/04/08 07:31:50;;;;;;;1.10;1.00;;;18.20;40.30;;;;;;5061500;28;20305;-61
2022/04/08 07:34:16;;;;;;;1.10;1.00;;;18.20;40.30;;;;;;5065358;28;20217;-60
2022/04/08 07:36:41;;;;;;;2.17;1.00;;;18.20;40.30;;;;;;5064679;28;20226;-58
2022/04/08 07:39:07;;;;;;;2.70;1.20;;;18.20;40.40;;;;;;5064598;28;20678;-60
2022/04/08 07:41:32;;;;;;;1.27;1.17;;;18.20;40.30;;;;;;5060676;28;20225;-59
2022/04/08 07:43:58;;;;;;;1.13;1.03;;;18.30;40.40;;;;;;5064600;28;20313;-61
2022/04/08 07:46:23;;;;;;;1.20;1.00;;;18.20;40.30;;;;;;5063357;28;20251;-61
2022/04/08 07:48:49;;;;;;;1.17;1.07;;;18.20;40.40;;;;;;5060889;28;20238;-59
2022/04/08 07:51:15;;;;;;;1.10;1.00;;;18.30;40.50;;;;;;5064741;28;20322;-58
2022/04/08 07:53:40;;;;;;;1.30;1.03;;;18.20;40.40;;;;;;5059162;28;20250;-57
2022/04/08 07:56:06;;;;;;;1.10;1.00;;;18.20;40.40;;;;;;5067236;28;20288;-59
2022/04/08 07:58:31;;;;;;;1.13;0.90;;;18.20;40.40;;;;;;5062062;28;20230;-59
2022/04/08 08:00:57;;;;;;;1.27;1.17;;;18.20;40.50;;;;;;5059897;28;20231;-60
2022/04/08 08:03:23;;;;;;;1.20;1.10;;;18.20;40.50;;;;;;5065807;28;20221;-58
2022/04/08 08:05:51;;;;;;;1.63;0.90;;;18.20;40.50;;;;;;5064906;28;20230;-58
2022/04/08 08:08:17;;;;;;;1.63;1.03;;;18.20;40.50;;;;;;5061053;28;20222;-58
2022/04/08 08:10:42;;;;;;;0.80;0.80;;;18.20;40.50;;;;;;5065466;28;20508;-58
2022/04/08 08:13:08;;;;;;;1.13;1.03;;;18.20;40.50;;;;;;5065599;28;20257;-58
2022/04/08 08:15:36;;;;;;;1.70;0.93;;;18.20;40.60;;;;;;5059343;28;20218;-57
2022/04/08 08:18:02;;;;;;;1.20;1.10;;;18.20;40.60;;;;;;5066091;28;20222;-59
2022/04/08 08:20:28;;;;;;;1.00;0.90;;;18.20;40.60;;;;;;5063673;28;20475;-59
2022/04/08 08:22:53;;;;;;;1.27;0.93;;;18.20;40.60;;;;;;5063417;28;20225;-57
2022/04/08 08:25:20;;;;;;;1.30;1.03;;;18.20;40.60;;;;;;5059103;28;20233;-58
2022/04/08 08:27:55;;;;;;;1.10;1.00;;;18.20;40.70;;;;;;5065492;28;20222;-58
2022/04/08 08:30:21;;;;;;;1.70;1.00;;;18.20;40.60;;;;;;5065272;28;20536;-57
2022/04/08 08:32:49;;;;;;;1.10;1.00;;;18.20;40.70;;;;;;5036287;28;20440;-59
2022/04/08 08:35:18;;;;;;;1.00;0.90;;;18.20;40.60;;;;;;5073024;28;20469;-58
2022/04/08 08:37:48;;;;;;;1.00;0.90;;;18.20;40.60;;;;;;5059918;28;20953;-59
2022/04/08 08:40:15;;;;;;;1.10;0.90;;;18.20;40.60;;;;;;5061134;28;20436;-58
2022/04/08 08:42:42;;;;;;;1.03;0.90;;;18.20;40.60;;;;;;5064235;28;20533;-58
2022/04/08 08:45:10;;;;;;;3.43;1.33;;;18.20;40.60;;;;;;5064493;28;20441;-56
2022/04/08 08:47:36;;;;;;;1.20;1.00;;;18.20;40.60;;;;;;5059406;28;20418;-58
2022/04/08 08:50:04;;;;;;;1.50;1.20;;;18.20;40.60;;;;;;5063354;28;20433;-58
2022/04/08 08:52:31;;;;;;;0.90;0.80;;;18.20;40.60;;;;;;5058537;28;20425;-57
2022/04/08 08:54:57;;;;;;;1.20;1.10;;;18.20;40.70;;;;;;5065882;28;20433;-58
2022/04/08 08:57:23;;;;;;;1.30;1.20;;;18.20;40.60;;;;;;5065426;28;20831;-58
2022/04/08 09:00:01;;;;;;;2.83;1.10;;;18.20;40.70;;;;;;5062990;28;20214;-57
2022/04/08 09:02:26;;;;;;;2.40;0.90;;;18.20;40.60;;;;;;5058359;28;20712;-57
2022/04/08 09:04:52;;;;;;;1.87;1.13;;;18.20;40.60;;;;;;5062317;28;20980;-57
2022/04/08 09:07:29;;;;;;;1.77;1.00;;;18.20;40.70;;;;;;5064069;28;20335;-57
2022/04/08 09:09:56;;;;;;;1.50;1.07;;;18.20;40.70;;;;;;5057802;28;20261;-57
2022/04/08 09:12:27;;;;;;;1.17;1.07;;;18.20;40.70;;;;;;5062934;28;22101;-58
2022/04/08 09:14:55;;;;;;;1.10;1.00;;;18.20;40.70;;;;;;5059994;28;20438;-58
2022/04/08 09:17:23;;;;;;;1.20;1.10;;;18.20;40.70;;;;;;5060988;28;20835;-58
2022/04/08 09:19:53;;;;;;;3.10;1.00;;;18.20;40.70;;;;;;5062119;28;20466;-58
2022/04/08 09:22:20;;;;;;;1.30;1.10;;;18.20;40.70;;;;;;5059889;28;20827;-57
2022/04/08 09:24:47;;;;;;;0.93;0.93;;;18.20;40.60;;;;;;5055604;28;20793;-57
2022/04/08 09:27:13;;;;;;;1.20;0.90;;;18.20;40.70;;;;;;5061966;28;20492;-57
2022/04/08 09:29:45;;;;;;;3.47;1.20;;;18.20;40.70;;;;;;5057461;28;20964;-57
2022/04/08 09:32:14;;;;;;;2.47;1.33;;;18.20;41.50;;;;;;5057240;28;20788;-57
2022/04/08 09:34:42;;;;;;;5.90;1.43;;;18.20;40.70;;;;;;5062245;28;20538;-58
2022/04/08 09:37:12;;;;;;;3.77;1.37;;;18.20;40.70;;;;;;5058661;28;20422;-57
2022/04/08 09:40:01;;;;;;;1.60;1.27;;;18.20;40.70;;;;;;5060701;28;20568;-57
2022/04/08 09:42:49;;;;;;;2.63;1.07;;;18.20;40.70;;;;;;5062188;28;20492;-58
2022/04/08 09:45:27;;;;;;;1.67;1.13;;;18.10;40.70;;;;;;5061285;28;20469;-57
2022/04/08 09:47:53;;;;;;;1.00;0.90;;;18.10;40.70;;;;;;5058210;28;20425;-58
2022/04/08 09:50:19;;;;;;;1.10;1.00;;;18.10;40.70;;;;;;5059384;28;20517;-57
2022/04/08 09:52:44;;;;;;;2.10;0.90;;;18.10;40.70;;;;;;5064842;28;20218;-58
2022/04/08 09:55:11;;;;;;;1.87;1.60;;;18.10;40.70;;;;;;5060349;28;20226;-57
2022/04/08 09:57:39;;;;;;;1.70;1.10;;;18.10;40.70;;;;;;5059026;28;20225;-57
2022/04/08 10:00:07;;;;;;;1.40;1.10;;;18.10;40.70;;;;;;5064794;28;20896;-57
2022/04/08 10:02:35;;;;;;;1.10;1.00;;;18.10;40.70;;;;;;5056957;28;20451;-57
2022/04/08 10:05:01;;;;;;;1.10;1.00;;;18.10;40.70;;;;;;5059407;28;20417;-57
2022/04/08 10:07:29;;;;;;;1.27;1.10;;;18.10;40.70;;;;;;5058126;28;20450;-58
2022/04/08 10:10:17;;;;;;;3.30;1.10;;;18.10;40.70;;;;;;5060021;28;20532;-57
2022/04/08 10:13:19;;;;;;;1.20;1.10;;;18.10;40.70;;;;;;5062148;28;20457;-57
2022/04/08 10:16:00;;;;;;;1.57;1.03;;;18.10;40.70;;;;;;4984139;28;20424;-58
2022/04/08 10:18:34;;;;;;;2.20;1.10;;;18.10;40.70;;;;;;5033203;28;20431;-57
2022/04/08 10:21:00;;;;;;;2.50;0.93;;;18.10;40.70;;;;;;5040010;28;20851;-58
2022/04/08 10:23:35;;;;;;;1.23;1.00;;;18.10;40.70;;;;;;5036495;28;20517;-57
2022/04/08 10:26:02;;;;;;;1.20;1.10;;;18.10;40.70;;;;;;5041324;28;20283;-58
2022/04/08 10:28:38;;;;;;;1.20;1.10;;;18.10;40.70;;;;;;5036448;28;21132;-59
2022/04/08 10:31:16;;;;;;;1.10;1.00;;;18.10;40.70;;;;;;5039486;28;20446;-58
2022/04/08 10:33:47;;;;;;;1.57;1.30;;;18.10;40.70;;;;;;5038544;28;20462;-58
2022/04/08 10:36:13;;;;;;;1.10;1.00;;;18.10;40.70;;;;;;5024685;28;20447;-58
2022/04/08 10:38:39;;;;;;;0.87;0.87;;;18.00;40.60;;;;;;5038528;28;20799;-58
2022/04/08 10:41:11;;;;;;;1.00;0.90;;;18.10;40.70;;;;;;5043085;28;20261;-58
2022/04/08 10:43:48;;;;;;;1.00;1.00;;;18.10;40.80;;;;;;5062569;28;20217;-58
2022/04/08 10:46:29;;;;;;;1.10;1.00;;;18.00;40.60;;;;;;5066673;28;20516;-58
2022/04/08 10:48:58;;;;;;;1.33;1.07;;;18.00;41.30;;;;;;5061836;28;20425;-62
2022/04/08 10:51:29;;;;;;;1.43;1.10;;;18.00;40.60;;;;;;5060527;28;20452;-59
2022/04/08 10:54:03;;;;;;;1.00;0.87;;;18.00;40.60;;;;;;5060257;28;21178;-59
2022/04/08 10:56:35;;;;;;;1.10;1.00;;;18.00;40.60;;;;;;5066853;28;20470;-60
2022/04/08 10:59:02;;;;;;;1.30;1.20;;;18.00;40.60;;;;;;5059648;28;20520;-58
2022/04/08 11:01:28;;;;;;;1.10;1.00;;;18.00;40.60;;;;;;5063307;28;20434;-60
2022/04/08 11:04:00;;;;;;;1.50;1.10;;;18.00;40.60;;;;;;5066348;28;20473;-59
2022/04/08 11:06:36;;;;;;;1.10;1.00;;;18.00;40.60;;;;;;5049091;28;20284;-58
2022/04/08 11:09:14;;;;;;;1.00;0.90;;;18.00;40.60;;;;;;5044657;28;21011;-58
2022/04/08 11:11:42;;;;;;;2.20;1.17;;;18.00;40.60;;;;;;5044482;28;20502;-59
2022/04/08 11:14:08;;;;;;;1.20;1.10;;;18.00;40.60;;;;;;5042143;28;20797;-59
2022/04/08 11:16:36;;;;;;;1.10;0.90;;;18.00;40.60;;;;;;5043782;28;20415;-59
2022/04/08 11:19:06;;;;;;;1.20;1.10;;;18.00;40.60;;;;;;5043085;28;20800;-59
2022/04/08 11:21:34;;;;;;;1.10;1.00;;;18.00;40.50;;;;;;5041320;28;20446;-58
2022/04/08 11:24:03;;;;;;;1.13;1.00;;;18.00;40.60;;;;;;5042309;28;20472;-59
2022/04/08 11:26:30;;;;;;;1.00;1.00;;;18.00;40.60;;;;;;5043533;28;20487;-59
2022/04/08 11:29:07;;;;;;;1.10;1.00;;;18.00;40.60;;;;;;5044683;28;20924;-58
2022/04/08 11:31:33;;;;;;;0.90;0.83;;;18.00;40.50;;;;;;5041456;28;20471;-59
2022/04/08 11:34:02;;;;;;;2.10;0.90;;;18.00;40.60;;;;;;5045880;28;20443;-58
2022/04/08 11:36:27;;;;;;;1.17;0.90;;;18.00;40.60;;;;;;5038457;28;20222;-58
2022/04/08 11:38:53;;;;;;;1.10;1.00;;;18.00;40.60;;;;;;5040538;28;20453;-58
2022/04/08 11:41:23;;;;;;;1.03;0.93;;;18.00;40.50;;;;;;5046100;28;20234;-59
2022/04/08 11:43:48;;;;;;;1.23;1.00;;;18.00;40.50;;;;;;5040807;28;20242;-63
2022/04/08 11:46:17;;;;;;;1.20;1.10;;;18.00;40.50;;;;;;5047704;28;21010;-57
2022/04/08 11:48:43;;;;;;;1.93;0.90;;;18.00;40.50;;;;;;5044858;28;20226;-59
2022/04/08 11:51:09;;;;;;;1.10;1.00;;;18.00;40.50;;;;;;5043105;28;21068;-59
2022/04/08 11:53:46;;;;;;;1.00;0.90;;;18.00;40.50;;;;;;5011189;28;20494;-58
2022/04/08 11:56:20;;;;;;;1.23;1.13;;;18.00;40.50;;;;;;5041751;28;20226;-60
2022/04/08 11:59:08;;;;;;;1.10;1.00;;;18.00;40.50;;;;;;5041346;28;20475;-59
2022/04/08 12:01:40;;;;;;;1.73;1.63;;;18.00;40.50;;;;;;5023998;28;20786;-63
2022/04/08 12:04:08;;;;;;;1.00;0.90;;;18.00;40.50;;;;;;5044330;28;20501;-57
2022/04/08 12:06:37;;;;;;;1.30;1.00;;;18.00;40.50;;;;;;5039423;28;20469;-60
2022/04/08 12:09:02;;;;;;;1.30;0.90;;;18.00;40.50;;;;;;5042060;28;20958;-62
2022/04/08 12:11:29;;;;;;;1.00;0.90;;;18.00;40.40;;;;;;5040569;28;20445;-60
2022/04/08 12:13:57;;;;;;;0.80;0.77;;;18.00;40.40;;;;;;5041703;28;20231;-61
2022/04/08 12:16:22;;;;;;;1.37;1.03;;;18.00;40.30;;;;;;5037771;28;20463;-59
2022/04/08 12:18:51;;;;;;;1.07;1.00;;;18.00;40.30;;;;;;5044089;28;20458;-59
2022/04/08 12:21:22;;;;;;;0.90;0.90;;;18.10;40.40;;;;;;5035770;28;20750;-59
2022/04/08 12:23:50;;;;;;;1.30;0.90;;;18.00;40.30;;;;;;5041420;28;20418;-59
2022/04/08 12:26:16;;;;;;;1.10;1.00;;;18.10;40.40;;;;;;5025492;28;20467;-59
2022/04/08 12:28:41;;;;;;;1.20;1.10;;;18.10;40.40;;;;;;5040999;28;20434;-59
2022/04/08 12:31:10;;;;;;;0.87;0.87;;;18.00;40.30;;;;;;5043593;28;20559;-59
2022/04/08 12:33:36;;;;;;;0.90;0.87;;;18.10;40.40;;;;;;5040462;28;20230;-59
2022/04/08 12:36:02;;;;;;;0.90;0.90;;;18.00;40.30;;;;;;5030966;28;20511;-59
2022/04/08 12:38:29;;;;;;;0.80;0.80;;;18.00;40.20;;;;;;5041820;28;20301;-59
2022/04/08 12:40:54;;;;;;;0.90;0.80;;;18.00;40.30;;;;;;5043595;28;20432;-62
2022/04/08 12:43:20;;;;;;;2.50;1.40;;;18.00;40.30;;;;;;5041115;28;20435;-60
2022/04/08 12:45:45;;;;;;;1.00;0.80;;;18.00;40.30;;;;;;5039885;28;20680;-61
2022/04/08 12:48:11;;;;;;;1.77;1.00;;;18.00;40.30;;;;;;5044137;28;20875;-59